sensor_id;sensor_type;location;lat;lon;timestamp;P1;durP1;ratioP1;P2;durP2;ratioP2
73421;SDS011;61637;47.760;-122.022;2023-12-29T00:22:01;3.9;;;0.8;;
73421;SDS011;61637;47.760;-122.022;2023-12-29T00:24:01;3.0;;;0.8;;
73421;SDS011;61637;47.760;-122.022;2023-12-29T00:26:01;3.4;;;1.0;;
73421;SDS011;61637;47.760;-122.022;2023-12-29T00:28:01;3.2;;;0.9;;
73421;SDS011;61637;47.760;-122.022;2023-12-29T00:30:01;3.2;;;0.9;;
73421;SDS011;61637;47.760;-122.022;2023-12-29T00:32:01;4.6;;;1.0;;
73421;SDS011;61637;47.760;-122.022;2023-12-29T00:34:01;2.1;;;0.8;;
73421;SDS011;61637;47.760;-122.022;2023-12-29T00:36:01;3.6;;;1.0;;
73421;SDS011;61637;47.760;-122.022;2023-12-29T00:38:01;3.3;;;0.9;;
73421;SDS011;61637;47.760;-122.022;2023-12-29T00:40:01;6.7;;;1.0;;
73421;SDS011;61637;47.760;-122.022;2023-12-29T00:42:01;3.3;;;1.0;;
73421;SDS011;61637;47.760;-122.022;2023-12-29T00:44:01;2.8;;;1.0;;
73421;SDS011;61637;47.760;-122.022;2023-12-29T00:46:01;2.8;;;0.8;;
73421;SDS011;61637;47.760;-122.022;2023-12-29T00:48:01;2.4;;;0.9;;
73421;SDS011;61637;47.760;-122.022;2023-12-29T00:50:01;4.6;;;1.1;;
73421;SDS011;61637;47.760;-122.022;2023-12-29T00:52:01;4.7;;;1.0;;
73421;SDS011;61637;47.760;-122.022;2023-12-29T00:54:01;4.9;;;0.9;;
73421;SDS011;61637;47.760;-122.022;2023-12-29T00:56:01;4.6;;;0.9;;
73421;SDS011;61637;47.760;-122.022;2023-12-29T00:58:01;3.9;;;0.9;;
73421;SDS011;61637;47.760;-122.022;2023-12-29T01:00:01;5.0;;;1.1;;
73421;SDS011;61637;47.760;-122.022;2023-12-29T01:02:01;2.8;;;1.0;;
73421;SDS011;61637;47.760;-122.022;2023-12-29T01:04:01;5.6;;;1.0;;
73421;SDS011;61637;47.760;-122.022;2023-12-29T01:06:01;5.1;;;1.0;;
73421;SDS011;61637;47.760;-122.022;2023-12-29T01:08:01;5.2;;;1.0;;
73421;SDS011;61637;47.760;-122.022;2023-12-29T01:10:02;3.8;;;1.0;;
73421;SDS011;61637;47.760;-122.022;2023-12-29T01:12:01;3.2;;;1.0;;
73421;SDS011;61637;47.760;-122.022;2023-12-29T01:14:01;4.2;;;0.9;;
73421;SDS011;61637;47.760;-122.022;2023-12-29T01:16:01;3.9;;;1.1;;
73421;SDS011;61637;47.760;-122.022;2023-12-29T01:18:01;3.7;;;0.9;;
73421;SDS011;61637;47.760;-122.022;2023-12-29T01:20:01;4.1;;;1.0;;
73421;SDS011;61637;47.760;-122.022;2023-12-29T01:22:01;4.6;;;0.9;;
73421;SDS011;61637;47.760;-122.022;2023-12-29T01:24:01;3.6;;;1.0;;
73421;SDS011;61637;47.760;-122.022;2023-12-29T01:26:01;2.3;;;0.8;;
73421;SDS011;61637;47.760;-122.022;2023-12-29T01:28:01;3.2;;;0.9;;
73421;SDS011;61637;47.760;-122.022;2023-12-29T01:30:01;3.7;;;1.2;;
73421;SDS011;61637;47.760;-122.022;2023-12-29T01:32:01;3.0;;;1.0;;
73421;SDS011;61637;47.760;-122.022;2023-12-29T01:34:01;5.0;;;1.2;;
73421;SDS011;61637;47.760;-122.022;2023-12-29T01:36:01;5.2;;;1.3;;
73421;SDS011;61637;47.760;-122.022;2023-12-29T01:38:02;3.9;;;1.2;;
73421;SDS011;61637;47.760;-122.022;2023-12-29T01:40:01;5.5;;;1.2;;
73421;SDS011;61637;47.760;-122.022;2023-12-29T01:42:02;3.2;;;1.0;;
73421;SDS011;61637;47.760;-122.022;2023-12-29T01:44:18;3.6;;;1.2;;
73421;SDS011;61637;47.760;-122.022;2023-12-29T01:46:01;4.4;;;1.2;;
73421;SDS011;61637;47.760;-122.022;2023-12-29T01:48:01;3.6;;;1.1;;
73421;SDS011;61637;47.760;-122.022;2023-12-29T01:50:01;4.3;;;1.1;;
73421;SDS011;61637;47.760;-122.022;2023-12-29T01:52:02;3.7;;;1.1;;
73421;SDS011;61637;47.760;-122.022;2023-12-29T01:54:02;5.4;;;1.5;;
73421;SDS011;61637;47.760;-122.022;2023-12-29T01:56:01;4.4;;;1.3;;
73421;SDS011;61637;47.760;-122.022;2023-12-29T01:58:02;4.1;;;1.4;;
73421;SDS011;61637;47.760;-122.022;2023-12-29T02:00:02;7.0;;;1.7;;
73421;SDS011;61637;47.760;-122.022;2023-12-29T02:02:02;4.6;;;1.5;;
73421;SDS011;61637;47.760;-122.022;2023-12-29T02:04:01;7.4;;;1.4;;
73421;SDS011;61637;47.760;-122.022;2023-12-29T02:06:02;3.5;;;1.1;;
73421;SDS011;61637;47.760;-122.022;2023-12-29T02:08:02;6.0;;;1.2;;
73421;SDS011;61637;47.760;-122.022;2023-12-29T02:10:01;3.6;;;1.2;;
73421;SDS011;61637;47.760;-122.022;2023-12-29T02:12:01;4.3;;;1.2;;
73421;SDS011;61637;47.760;-122.022;2023-12-29T02:14:01;5.0;;;1.2;;
73421;SDS011;61637;47.760;-122.022;2023-12-29T02:16:07;4.8;;;1.3;;
73421;SDS011;61637;47.760;-122.022;2023-12-29T02:18:03;4.2;;;1.2;;
73421;SDS011;61637;47.760;-122.022;2023-12-29T02:20:01;4.3;;;1.3;;
73421;SDS011;61637;47.760;-122.022;2023-12-29T02:22:01;4.5;;;1.2;;
73421;SDS011;61637;47.760;-122.022;2023-12-29T02:24:01;6.3;;;1.2;;
73421;SDS011;61637;47.760;-122.022;2023-12-29T02:26:06;5.4;;;1.2;;
73421;SDS011;61637;47.760;-122.022;2023-12-29T02:28:06;4.9;;;1.3;;
73421;SDS011;61637;47.760;-122.022;2023-12-29T02:30:20;4.1;;;1.2;;
73421;SDS011;61637;47.760;-122.022;2023-12-29T02:32:04;4.8;;;1.2;;
73421;SDS011;61637;47.760;-122.022;2023-12-29T02:34:02;4.0;;;1.1;;
73421;SDS011;61637;47.760;-122.022;2023-12-29T02:36:02;4.3;;;1.0;;
73421;SDS011;61637;47.760;-122.022;2023-12-29T02:38:01;4.1;;;1.3;;
73421;SDS011;61637;47.760;-122.022;2023-12-29T02:40:01;4.3;;;1.1;;
73421;SDS011;61637;47.760;-122.022;2023-12-29T02:42:01;4.7;;;1.2;;
73421;SDS011;61637;47.760;-122.022;2023-12-29T02:44:01;4.0;;;1.1;;
73421;SDS011;61637;47.760;-122.022;2023-12-29T02:46:01;4.7;;;1.2;;
73421;SDS011;61637;47.760;-122.022;2023-12-29T02:48:01;6.0;;;1.3;;
73421;SDS011;61637;47.760;-122.022;2023-12-29T02:50:01;5.8;;;1.2;;
73421;SDS011;61637;47.760;-122.022;2023-12-29T02:52:01;5.8;;;1.2;;
73421;SDS011;61637;47.760;-122.022;2023-12-29T02:54:01;3.6;;;1.3;;
73421;SDS011;61637;47.760;-122.022;2023-12-29T02:56:01;4.6;;;1.3;;
73421;SDS011;61637;47.760;-122.022;2023-12-29T02:58:01;3.9;;;1.3;;
73421;SDS011;61637;47.760;-122.022;2023-12-29T03:00:01;5.8;;;1.1;;
73421;SDS011;61637;47.760;-122.022;2023-12-29T03:02:01;4.8;;;1.3;;
73421;SDS011;61637;47.760;-122.022;2023-12-29T03:04:01;4.9;;;1.3;;
73421;SDS011;61637;47.760;-122.022;2023-12-29T03:06:01;4.7;;;1.2;;
73421;SDS011;61637;47.760;-122.022;2023-12-29T03:08:01;3.3;;;1.1;;
73421;SDS011;61637;47.760;-122.022;2023-12-29T03:10:01;5.2;;;1.3;;
73421;SDS011;61637;47.760;-122.022;2023-12-29T03:12:01;3.2;;;1.1;;
73421;SDS011;61637;47.760;-122.022;2023-12-29T03:14:01;4.0;;;1.1;;
73421;SDS011;61637;47.760;-122.022;2023-12-29T03:16:01;3.2;;;1.1;;
73421;SDS011;61637;47.760;-122.022;2023-12-29T03:18:01;3.8;;;1.1;;
73421;SDS011;61637;47.760;-122.022;2023-12-29T03:20:03;4.1;;;1.2;;
73421;SDS011;61637;47.760;-122.022;2023-12-29T03:22:01;4.1;;;1.2;;
73421;SDS011;61637;47.760;-122.022;2023-12-29T03:24:01;3.6;;;1.2;;
73421;SDS011;61637;47.760;-122.022;2023-12-29T03:26:01;5.9;;;1.2;;
73421;SDS011;61637;47.760;-122.022;2023-12-29T03:28:01;6.1;;;1.2;;
73421;SDS011;61637;47.760;-122.022;2023-12-29T03:30:01;3.7;;;1.0;;
73421;SDS011;61637;47.760;-122.022;2023-12-29T03:32:01;4.3;;;1.1;;
73421;SDS011;61637;47.760;-122.022;2023-12-29T03:34:01;3.8;;;1.0;;
73421;SDS011;61637;47.760;-122.022;2023-12-29T03:36:01;5.8;;;1.2;;
73421;SDS011;61637;47.760;-122.022;2023-12-29T03:38:01;4.8;;;1.1;;
73421;SDS011;61637;47.760;-122.022;2023-12-29T03:40:01;4.4;;;1.0;;
73421;SDS011;61637;47.760;-122.022;2023-12-29T03:42:01;3.0;;;1.0;;
73421;SDS011;61637;47.760;-122.022;2023-12-29T03:44:01;3.7;;;1.1;;
73421;SDS011;61637;47.760;-122.022;2023-12-29T03:46:01;4.7;;;1.2;;
73421;SDS011;61637;47.760;-122.022;2023-12-29T03:48:01;4.5;;;1.1;;
73421;SDS011;61637;47.760;-122.022;2023-12-29T03:50:01;3.9;;;1.1;;
73421;SDS011;61637;47.760;-122.022;2023-12-29T03:52:01;4.2;;;1.0;;
73421;SDS011;61637;47.760;-122.022;2023-12-29T03:54:01;3.3;;;1.0;;
73421;SDS011;61637;47.760;-122.022;2023-12-29T03:56:05;3.6;;;1.1;;
73421;SDS011;61637;47.760;-122.022;2023-12-29T03:58:02;3.8;;;1.0;;
73421;SDS011;61637;47.760;-122.022;2023-12-29T04:00:01;4.5;;;1.1;;
73421;SDS011;61637;47.760;-122.022;2023-12-29T04:02:01;4.7;;;1.1;;
73421;SDS011;61637;47.760;-122.022;2023-12-29T04:04:01;4.5;;;1.1;;
73421;SDS011;61637;47.760;-122.022;2023-12-29T04:06:01;4.3;;;1.1;;
73421;SDS011;61637;47.760;-122.022;2023-12-29T04:08:01;4.4;;;1.0;;
73421;SDS011;61637;47.760;-122.022;2023-12-29T04:10:01;3.2;;;1.0;;
73421;SDS011;61637;47.760;-122.022;2023-12-29T04:12:01;3.9;;;1.2;;
73421;SDS011;61637;47.760;-122.022;2023-12-29T04:14:01;4.4;;;1.1;;
73421;SDS011;61637;47.760;-122.022;2023-12-29T04:16:01;3.5;;;1.1;;
73421;SDS011;61637;47.760;-122.022;2023-12-29T04:18:01;4.6;;;1.1;;
73421;SDS011;61637;47.760;-122.022;2023-12-29T04:20:01;3.8;;;1.1;;
73421;SDS011;61637;47.760;-122.022;2023-12-29T04:22:01;3.2;;;1.1;;
73421;SDS011;61637;47.760;-122.022;2023-12-29T04:24:01;4.5;;;1.3;;
73421;SDS011;61637;47.760;-122.022;2023-12-29T04:26:01;3.6;;;1.1;;
73421;SDS011;61637;47.760;-122.022;2023-12-29T04:28:01;3.9;;;1.2;;
73421;SDS011;61637;47.760;-122.022;2023-12-29T04:30:01;3.9;;;1.2;;
73421;SDS011;61637;47.760;-122.022;2023-12-29T04:32:01;4.1;;;1.2;;
73421;SDS011;61637;47.760;-122.022;2023-12-29T04:34:01;8.3;;;1.2;;
73421;SDS011;61637;47.760;-122.022;2023-12-29T04:36:01;4.9;;;1.1;;
73421;SDS011;61637;47.760;-122.022;2023-12-29T04:38:01;4.4;;;1.2;;
73421;SDS011;61637;47.760;-122.022;2023-12-29T04:40:01;3.5;;;1.2;;
73421;SDS011;61637;47.760;-122.022;2023-12-29T04:42:01;5.5;;;1.1;;
73421;SDS011;61637;47.760;-122.022;2023-12-29T04:44:01;4.4;;;1.1;;
73421;SDS011;61637;47.760;-122.022;2023-12-29T04:46:01;4.8;;;1.2;;
73421;SDS011;61637;47.760;-122.022;2023-12-29T04:48:01;4.0;;;1.2;;
73421;SDS011;61637;47.760;-122.022;2023-12-29T04:50:01;4.6;;;1.2;;
73421;SDS011;61637;47.760;-122.022;2023-12-29T04:52:01;3.0;;;1.0;;
73421;SDS011;61637;47.760;-122.022;2023-12-29T04:54:01;5.0;;;1.2;;
73421;SDS011;61637;47.760;-122.022;2023-12-29T04:56:01;3.4;;;1.1;;
73421;SDS011;61637;47.760;-122.022;2023-12-29T04:58:02;5.7;;;1.2;;
73421;SDS011;61637;47.760;-122.022;2023-12-29T05:00:01;3.6;;;1.3;;
73421;SDS011;61637;47.760;-122.022;2023-12-29T05:02:01;5.4;;;1.1;;
73421;SDS011;61637;47.760;-122.022;2023-12-29T05:04:01;3.6;;;1.2;;
73421;SDS011;61637;47.760;-122.022;2023-12-29T05:06:01;4.0;;;1.1;;
73421;SDS011;61637;47.760;-122.022;2023-12-29T05:08:01;3.0;;;1.1;;
73421;SDS011;61637;47.760;-122.022;2023-12-29T05:10:01;3.9;;;1.0;;
73421;SDS011;61637;47.760;-122.022;2023-12-29T05:12:01;3.1;;;1.2;;
73421;SDS011;61637;47.760;-122.022;2023-12-29T05:14:01;4.4;;;1.0;;
73421;SDS011;61637;47.760;-122.022;2023-12-29T05:16:01;2.6;;;1.0;;
73421;SDS011;61637;47.760;-122.022;2023-12-29T05:18:01;3.2;;;1.0;;
73421;SDS011;61637;47.760;-122.022;2023-12-29T05:20:01;3.3;;;0.9;;
73421;SDS011;61637;47.760;-122.022;2023-12-29T05:22:03;4.6;;;1.1;;
73421;SDS011;61637;47.760;-122.022;2023-12-29T05:24:01;2.5;;;1.0;;
73421;SDS011;61637;47.760;-122.022;2023-12-29T05:26:01;4.7;;;1.0;;
73421;SDS011;61637;47.760;-122.022;2023-12-29T05:28:01;4.1;;;1.0;;
73421;SDS011;61637;47.760;-122.022;2023-12-29T05:30:01;3.7;;;1.0;;
73421;SDS011;61637;47.760;-122.022;2023-12-29T05:32:01;3.4;;;0.9;;
73421;SDS011;61637;47.760;-122.022;2023-12-29T05:34:02;3.2;;;1.2;;
73421;SDS011;61637;47.760;-122.022;2023-12-29T05:36:07;5.1;;;0.9;;
73421;SDS011;61637;47.760;-122.022;2023-12-29T05:38:01;2.8;;;0.9;;
73421;SDS011;61637;47.760;-122.022;2023-12-29T05:40:01;2.9;;;0.9;;
73421;SDS011;61637;47.760;-122.022;2023-12-29T05:42:01;2.7;;;0.8;;
73421;SDS011;61637;47.760;-122.022;2023-12-29T05:44:01;3.6;;;0.9;;
73421;SDS011;61637;47.760;-122.022;2023-12-29T05:46:02;4.8;;;1.0;;
73421;SDS011;61637;47.760;-122.022;2023-12-29T05:48:01;3.1;;;1.0;;
73421;SDS011;61637;47.760;-122.022;2023-12-29T05:50:01;2.3;;;0.9;;
73421;SDS011;61637;47.760;-122.022;2023-12-29T05:52:01;2.9;;;0.9;;
73421;SDS011;61637;47.760;-122.022;2023-12-29T05:54:01;3.3;;;0.8;;
73421;SDS011;61637;47.760;-122.022;2023-12-29T05:56:01;2.4;;;0.9;;
73421;SDS011;61637;47.760;-122.022;2023-12-29T05:58:01;2.7;;;0.9;;
73421;SDS011;61637;47.760;-122.022;2023-12-29T06:00:01;3.2;;;0.9;;
73421;SDS011;61637;47.760;-122.022;2023-12-29T06:02:01;5.1;;;0.9;;
73421;SDS011;61637;47.760;-122.022;2023-12-29T06:04:01;2.5;;;1.0;;
73421;SDS011;61637;47.760;-122.022;2023-12-29T06:06:01;3.7;;;0.9;;
73421;SDS011;61637;47.760;-122.022;2023-12-29T06:08:01;3.0;;;1.0;;
73421;SDS011;61637;47.760;-122.022;2023-12-29T06:10:02;3.5;;;0.9;;
73421;SDS011;61637;47.760;-122.022;2023-12-29T06:12:01;2.8;;;0.9;;
73421;SDS011;61637;47.760;-122.022;2023-12-29T06:14:01;3.6;;;1.0;;
73421;SDS011;61637;47.760;-122.022;2023-12-29T06:16:01;3.9;;;1.0;;
73421;SDS011;61637;47.760;-122.022;2023-12-29T06:18:01;3.6;;;1.0;;
73421;SDS011;61637;47.760;-122.022;2023-12-29T06:20:01;3.3;;;1.0;;
73421;SDS011;61637;47.760;-122.022;2023-12-29T06:22:01;3.6;;;1.0;;
73421;SDS011;61637;47.760;-122.022;2023-12-29T06:24:01;2.7;;;1.0;;
73421;SDS011;61637;47.760;-122.022;2023-12-29T06:26:01;5.5;;;1.1;;
73421;SDS011;61637;47.760;-122.022;2023-12-29T06:28:01;3.9;;;0.9;;
73421;SDS011;61637;47.760;-122.022;2023-12-29T06:30:01;4.0;;;1.0;;
73421;SDS011;61637;47.760;-122.022;2023-12-29T06:32:01;4.3;;;1.0;;
73421;SDS011;61637;47.760;-122.022;2023-12-29T06:34:01;3.5;;;1.0;;
73421;SDS011;61637;47.760;-122.022;2023-12-29T06:36:01;3.7;;;0.9;;
73421;SDS011;61637;47.760;-122.022;2023-12-29T06:38:01;4.7;;;1.0;;
73421;SDS011;61637;47.760;-122.022;2023-12-29T06:40:01;3.6;;;0.9;;
73421;SDS011;61637;47.760;-122.022;2023-12-29T06:42:01;3.6;;;1.0;;
73421;SDS011;61637;47.760;-122.022;2023-12-29T06:44:01;3.5;;;0.9;;
73421;SDS011;61637;47.760;-122.022;2023-12-29T06:46:01;2.8;;;1.0;;
73421;SDS011;61637;47.760;-122.022;2023-12-29T06:48:01;2.6;;;0.9;;
73421;SDS011;61637;47.760;-122.022;2023-12-29T06:50:01;2.6;;;0.9;;
73421;SDS011;61637;47.760;-122.022;2023-12-29T06:52:01;3.5;;;1.0;;
73421;SDS011;61637;47.760;-122.022;2023-12-29T06:54:01;3.2;;;0.9;;
73421;SDS011;61637;47.760;-122.022;2023-12-29T06:56:01;3.7;;;1.0;;
73421;SDS011;61637;47.760;-122.022;2023-12-29T06:58:01;5.5;;;0.9;;
73421;SDS011;61637;47.760;-122.022;2023-12-29T07:00:01;2.5;;;0.9;;
73421;SDS011;61637;47.760;-122.022;2023-12-29T07:02:01;3.6;;;0.9;;
73421;SDS011;61637;47.760;-122.022;2023-12-29T07:04:01;2.7;;;1.0;;
73421;SDS011;61637;47.760;-122.022;2023-12-29T07:06:01;3.1;;;1.0;;
73421;SDS011;61637;47.760;-122.022;2023-12-29T07:08:01;5.9;;;1.1;;
73421;SDS011;61637;47.760;-122.022;2023-12-29T07:10:01;3.7;;;0.9;;
73421;SDS011;61637;47.760;-122.022;2023-12-29T07:12:01;3.8;;;1.0;;
73421;SDS011;61637;47.760;-122.022;2023-12-29T07:14:01;2.7;;;0.9;;
73421;SDS011;61637;47.760;-122.022;2023-12-29T07:16:01;2.7;;;0.9;;
73421;SDS011;61637;47.760;-122.022;2023-12-29T07:18:01;2.8;;;0.9;;
73421;SDS011;61637;47.760;-122.022;2023-12-29T07:20:01;4.2;;;0.9;;
73421;SDS011;61637;47.760;-122.022;2023-12-29T07:22:01;4.2;;;1.0;;
73421;SDS011;61637;47.760;-122.022;2023-12-29T07:24:01;3.9;;;1.0;;
73421;SDS011;61637;47.760;-122.022;2023-12-29T07:26:01;3.0;;;0.9;;
73421;SDS011;61637;47.760;-122.022;2023-12-29T07:28:01;3.7;;;1.0;;
73421;SDS011;61637;47.760;-122.022;2023-12-29T07:30:01;2.6;;;0.8;;
73421;SDS011;61637;47.760;-122.022;2023-12-29T07:32:01;4.7;;;1.0;;
73421;SDS011;61637;47.760;-122.022;2023-12-29T07:34:01;4.3;;;1.0;;
73421;SDS011;61637;47.760;-122.022;2023-12-29T07:36:01;3.6;;;0.9;;
73421;SDS011;61637;47.760;-122.022;2023-12-29T07:38:01;3.6;;;1.0;;
73421;SDS011;61637;47.760;-122.022;2023-12-29T07:40:01;2.3;;;0.8;;
73421;SDS011;61637;47.760;-122.022;2023-12-29T07:42:01;4.5;;;0.9;;
73421;SDS011;61637;47.760;-122.022;2023-12-29T07:44:01;3.1;;;0.9;;
73421;SDS011;61637;47.760;-122.022;2023-12-29T07:46:01;3.2;;;0.8;;
73421;SDS011;61637;47.760;-122.022;2023-12-29T07:48:03;3.2;;;1.0;;
73421;SDS011;61637;47.760;-122.022;2023-12-29T07:50:01;2.9;;;1.0;;
73421;SDS011;61637;47.760;-122.022;2023-12-29T07:52:01;4.0;;;0.9;;
73421;SDS011;61637;47.760;-122.022;2023-12-29T07:54:01;3.8;;;1.0;;
73421;SDS011;61637;47.760;-122.022;2023-12-29T07:56:01;3.2;;;0.9;;
73421;SDS011;61637;47.760;-122.022;2023-12-29T07:58:01;2.5;;;0.9;;
73421;SDS011;61637;47.760;-122.022;2023-12-29T08:00:02;2.3;;;0.9;;
73421;SDS011;61637;47.760;-122.022;2023-12-29T08:02:01;3.2;;;1.0;;
73421;SDS011;61637;47.760;-122.022;2023-12-29T08:04:01;3.1;;;0.9;;
73421;SDS011;61637;47.760;-122.022;2023-12-29T08:06:01;2.6;;;0.9;;
73421;SDS011;61637;47.760;-122.022;2023-12-29T08:08:01;3.2;;;0.9;;
73421;SDS011;61637;47.760;-122.022;2023-12-29T08:10:03;4.4;;;1.0;;
73421;SDS011;61637;47.760;-122.022;2023-12-29T08:12:01;4.3;;;0.8;;
73421;SDS011;61637;47.760;-122.022;2023-12-29T08:14:01;3.0;;;0.9;;
73421;SDS011;61637;47.760;-122.022;2023-12-29T08:16:01;4.3;;;1.1;;
73421;SDS011;61637;47.760;-122.022;2023-12-29T08:18:01;2.2;;;0.8;;
73421;SDS011;61637;47.760;-122.022;2023-12-29T08:20:01;3.4;;;0.8;;
73421;SDS011;61637;47.760;-122.022;2023-12-29T08:22:01;2.2;;;0.8;;
73421;SDS011;61637;47.760;-122.022;2023-12-29T08:24:01;2.4;;;0.9;;
73421;SDS011;61637;47.760;-122.022;2023-12-29T08:26:03;2.8;;;0.9;;
73421;SDS011;61637;47.760;-122.022;2023-12-29T08:28:01;2.6;;;0.8;;
73421;SDS011;61637;47.760;-122.022;2023-12-29T08:30:01;3.9;;;0.9;;
73421;SDS011;61637;47.760;-122.022;2023-12-29T08:32:01;3.1;;;0.9;;
73421;SDS011;61637;47.760;-122.022;2023-12-29T08:34:01;2.7;;;0.9;;
73421;SDS011;61637;47.760;-122.022;2023-12-29T08:36:02;4.6;;;0.9;;
73421;SDS011;61637;47.760;-122.022;2023-12-29T08:38:01;4.1;;;1.0;;
73421;SDS011;61637;47.760;-122.022;2023-12-29T08:40:01;11.0;;;1.3;;
73421;SDS011;61637;47.760;-122.022;2023-12-29T08:42:01;4.0;;;1.0;;
73421;SDS011;61637;47.760;-122.022;2023-12-29T08:44:01;4.1;;;1.0;;
73421;SDS011;61637;47.760;-122.022;2023-12-29T08:46:02;3.1;;;1.0;;
73421;SDS011;61637;47.760;-122.022;2023-12-29T08:48:01;4.0;;;1.0;;
73421;SDS011;61637;47.760;-122.022;2023-12-29T08:50:01;4.4;;;0.9;;
73421;SDS011;61637;47.760;-122.022;2023-12-29T08:52:01;4.4;;;1.0;;
73421;SDS011;61637;47.760;-122.022;2023-12-29T08:54:01;1.9;;;0.8;;
73421;SDS011;61637;47.760;-122.022;2023-12-29T08:56:01;3.5;;;0.9;;
73421;SDS011;61637;47.760;-122.022;2023-12-29T08:58:01;3.2;;;0.8;;
73421;SDS011;61637;47.760;-122.022;2023-12-29T09:00:01;3.0;;;1.0;;
73421;SDS011;61637;47.760;-122.022;2023-12-29T09:02:01;2.6;;;0.9;;
73421;SDS011;61637;47.760;-122.022;2023-12-29T09:04:01;3.1;;;0.9;;
73421;SDS011;61637;47.760;-122.022;2023-12-29T09:06:01;5.0;;;1.0;;
73421;SDS011;61637;47.760;-122.022;2023-12-29T09:08:01;2.8;;;0.9;;
73421;SDS011;61637;47.760;-122.022;2023-12-29T09:10:01;2.9;;;1.1;;
73421;SDS011;61637;47.760;-122.022;2023-12-29T09:12:01;2.8;;;1.0;;
73421;SDS011;61637;47.760;-122.022;2023-12-29T09:14:01;4.5;;;1.2;;
73421;SDS011;61637;47.760;-122.022;2023-12-29T09:16:01;2.2;;;0.9;;
73421;SDS011;61637;47.760;-122.022;2023-12-29T09:18:01;2.5;;;1.0;;
73421;SDS011;61637;47.760;-122.022;2023-12-29T09:20:01;6.8;;;1.2;;
73421;SDS011;61637;47.760;-122.022;2023-12-29T09:22:01;3.8;;;1.2;;
73421;SDS011;61637;47.760;-122.022;2023-12-29T09:24:01;3.0;;;0.9;;
73421;SDS011;61637;47.760;-122.022;2023-12-29T09:26:01;3.7;;;1.0;;
73421;SDS011;61637;47.760;-122.022;2023-12-29T09:28:01;2.6;;;0.9;;
73421;SDS011;61637;47.760;-122.022;2023-12-29T09:30:01;5.6;;;1.3;;
73421;SDS011;61637;47.760;-122.022;2023-12-29T09:32:01;6.6;;;1.3;;
73421;SDS011;61637;47.760;-122.022;2023-12-29T09:34:01;2.3;;;0.9;;
73421;SDS011;61637;47.760;-122.022;2023-12-29T09:36:01;3.8;;;1.0;;
73421;SDS011;61637;47.760;-122.022;2023-12-29T09:38:01;4.8;;;1.1;;
73421;SDS011;61637;47.760;-122.022;2023-12-29T09:40:01;3.6;;;1.0;;
73421;SDS011;61637;47.760;-122.022;2023-12-29T09:42:01;3.9;;;0.9;;
73421;SDS011;61637;47.760;-122.022;2023-12-29T09:44:01;6.6;;;1.4;;
73421;SDS011;61637;47.760;-122.022;2023-12-29T09:46:02;5.2;;;1.1;;
73421;SDS011;61637;47.760;-122.022;2023-12-29T09:48:01;6.1;;;1.3;;
73421;SDS011;61637;47.760;-122.022;2023-12-29T09:50:02;7.0;;;1.4;;
73421;SDS011;61637;47.760;-122.022;2023-12-29T09:52:02;4.3;;;1.2;;
73421;SDS011;61637;47.760;-122.022;2023-12-29T09:54:01;4.6;;;1.2;;
73421;SDS011;61637;47.760;-122.022;2023-12-29T09:56:02;4.2;;;1.2;;
73421;SDS011;61637;47.760;-122.022;2023-12-29T09:58:01;3.9;;;1.1;;
73421;SDS011;61637;47.760;-122.022;2023-12-29T10:00:02;3.1;;;1.0;;
73421;SDS011;61637;47.760;-122.022;2023-12-29T10:02:01;3.4;;;1.0;;
73421;SDS011;61637;47.760;-122.022;2023-12-29T10:04:01;3.4;;;0.9;;
73421;SDS011;61637;47.760;-122.022;2023-12-29T10:06:06;4.6;;;1.0;;
73421;SDS011;61637;47.760;-122.022;2023-12-29T10:08:02;2.6;;;0.9;;
73421;SDS011;61637;47.760;-122.022;2023-12-29T10:10:01;2.5;;;0.9;;
73421;SDS011;61637;47.760;-122.022;2023-12-29T10:12:02;6.2;;;1.1;;
73421;SDS011;61637;47.760;-122.022;2023-12-29T10:14:06;2.8;;;1.0;;
73421;SDS011;61637;47.760;-122.022;2023-12-29T10:16:08;5.5;;;1.1;;
73421;SDS011;61637;47.760;-122.022;2023-12-29T10:18:07;5.5;;;1.0;;
73421;SDS011;61637;47.760;-122.022;2023-12-29T10:20:06;5.4;;;1.0;;
73421;SDS011;61637;47.760;-122.022;2023-12-29T10:22:08;3.0;;;0.9;;
73421;SDS011;61637;47.760;-122.022;2023-12-29T10:24:05;2.8;;;0.9;;
73421;SDS011;61637;47.760;-122.022;2023-12-29T10:26:01;4.4;;;1.0;;
73421;SDS011;61637;47.760;-122.022;2023-12-29T10:28:01;3.0;;;0.9;;
73421;SDS011;61637;47.760;-122.022;2023-12-29T10:30:01;4.3;;;0.9;;
73421;SDS011;61637;47.760;-122.022;2023-12-29T10:32:01;4.1;;;0.9;;
73421;SDS011;61637;47.760;-122.022;2023-12-29T10:34:19;3.0;;;1.1;;
73421;SDS011;61637;47.760;-122.022;2023-12-29T10:36:01;4.3;;;0.9;;
73421;SDS011;61637;47.760;-122.022;2023-12-29T10:38:11;2.8;;;0.9;;
73421;SDS011;61637;47.760;-122.022;2023-12-29T10:40:01;3.1;;;0.8;;
73421;SDS011;61637;47.760;-122.022;2023-12-29T10:42:05;2.5;;;0.9;;
73421;SDS011;61637;47.760;-122.022;2023-12-29T10:44:06;3.0;;;1.0;;
73421;SDS011;61637;47.760;-122.022;2023-12-29T10:46:06;5.2;;;0.9;;
73421;SDS011;61637;47.760;-122.022;2023-12-29T10:48:01;2.6;;;0.9;;
73421;SDS011;61637;47.760;-122.022;2023-12-29T10:50:02;4.9;;;0.9;;
73421;SDS011;61637;47.760;-122.022;2023-12-29T10:52:11;2.8;;;0.9;;
73421;SDS011;61637;47.760;-122.022;2023-12-29T10:54:01;4.1;;;1.0;;
73421;SDS011;61637;47.760;-122.022;2023-12-29T10:56:01;2.9;;;0.8;;
73421;SDS011;61637;47.760;-122.022;2023-12-29T10:58:01;2.1;;;0.8;;
73421;SDS011;61637;47.760;-122.022;2023-12-29T11:00:01;3.7;;;0.9;;
73421;SDS011;61637;47.760;-122.022;2023-12-29T11:02:02;3.2;;;0.9;;
73421;SDS011;61637;47.760;-122.022;2023-12-29T11:04:02;2.5;;;0.8;;
73421;SDS011;61637;47.760;-122.022;2023-12-29T11:06:01;5.7;;;1.0;;
73421;SDS011;61637;47.760;-122.022;2023-12-29T11:08:01;2.8;;;0.8;;
73421;SDS011;61637;47.760;-122.022;2023-12-29T11:10:02;3.6;;;0.9;;
73421;SDS011;61637;47.760;-122.022;2023-12-29T11:12:03;3.2;;;0.9;;
73421;SDS011;61637;47.760;-122.022;2023-12-29T11:14:01;2.2;;;0.8;;
73421;SDS011;61637;47.760;-122.022;2023-12-29T11:16:01;2.1;;;0.8;;
73421;SDS011;61637;47.760;-122.022;2023-12-29T11:18:03;2.3;;;0.9;;
73421;SDS011;61637;47.760;-122.022;2023-12-29T11:20:02;2.8;;;0.9;;
73421;SDS011;61637;47.760;-122.022;2023-12-29T11:22:01;2.1;;;0.8;;
73421;SDS011;61637;47.760;-122.022;2023-12-29T11:24:01;3.5;;;1.0;;
73421;SDS011;61637;47.760;-122.022;2023-12-29T11:26:03;6.5;;;0.9;;
73421;SDS011;61637;47.760;-122.022;2023-12-29T11:28:01;2.4;;;0.8;;
73421;SDS011;61637;47.760;-122.022;2023-12-29T11:30:03;4.4;;;0.8;;
73421;SDS011;61637;47.760;-122.022;2023-12-29T11:32:03;3.3;;;0.9;;
73421;SDS011;61637;47.760;-122.022;2023-12-29T11:34:05;6.1;;;0.9;;
73421;SDS011;61637;47.760;-122.022;2023-12-29T11:36:07;3.8;;;0.8;;
73421;SDS011;61637;47.760;-122.022;2023-12-29T11:38:17;2.2;;;0.8;;
73421;SDS011;61637;47.760;-122.022;2023-12-29T11:40:09;3.9;;;0.8;;
73421;SDS011;61637;47.760;-122.022;2023-12-29T11:42:06;3.3;;;0.9;;
73421;SDS011;61637;47.760;-122.022;2023-12-29T11:44:01;3.3;;;0.9;;
73421;SDS011;61637;47.760;-122.022;2023-12-29T11:46:01;3.8;;;0.9;;
73421;SDS011;61637;47.760;-122.022;2023-12-29T11:48:01;2.6;;;0.8;;
73421;SDS011;61637;47.760;-122.022;2023-12-29T11:50:01;2.4;;;0.7;;
73421;SDS011;61637;47.760;-122.022;2023-12-29T11:52:01;3.1;;;0.8;;
73421;SDS011;61637;47.760;-122.022;2023-12-29T11:54:02;2.5;;;0.9;;
73421;SDS011;61637;47.760;-122.022;2023-12-29T11:56:01;2.0;;;0.7;;
73421;SDS011;61637;47.760;-122.022;2023-12-29T11:58:02;2.5;;;0.8;;
73421;SDS011;61637;47.760;-122.022;2023-12-29T12:00:01;2.1;;;0.8;;
73421;SDS011;61637;47.760;-122.022;2023-12-29T12:02:01;1.7;;;0.7;;
73421;SDS011;61637;47.760;-122.022;2023-12-29T12:04:01;4.0;;;0.8;;
73421;SDS011;61637;47.760;-122.022;2023-12-29T12:06:01;3.9;;;0.9;;
73421;SDS011;61637;47.760;-122.022;2023-12-29T12:08:01;2.5;;;0.8;;
73421;SDS011;61637;47.760;-122.022;2023-12-29T12:12:02;3.8;;;0.9;;
73421;SDS011;61637;47.760;-122.022;2023-12-29T12:14:01;2.5;;;0.7;;